createdAt,value
2018-05-09T00:00:05.454Z,1010.53
2018-05-09T00:01:14.292Z,1010.53
2018-05-09T00:02:23.130Z,1010.52
2018-05-09T00:03:31.967Z,1010.51
2018-05-09T00:04:41.083Z,1010.55
2018-05-09T00:05:49.918Z,1010.57
2018-05-09T00:06:58.754Z,1010.53
2018-05-09T00:08:07.871Z,1010.58
2018-05-09T00:09:16.710Z,1010.57
2018-05-09T00:10:25.545Z,1010.54
2018-05-09T00:11:34.384Z,1010.53
2018-05-09T00:12:43.503Z,1010.53
2018-05-09T00:13:52.340Z,1010.53
2018-05-09T00:15:01.453Z,1010.53
2018-05-09T00:16:10.289Z,1010.52
2018-05-09T00:17:19.129Z,1010.55
2018-05-09T00:18:28.247Z,1010.5
2018-05-09T00:19:37.085Z,1010.48
2018-05-09T00:20:45.920Z,1010.48
2018-05-09T00:21:54.761Z,1010.46
2018-05-09T00:23:03.598Z,1010.47
2018-05-09T00:24:12.435Z,1010.49
2018-05-09T00:25:21.554Z,1010.51
2018-05-09T00:26:30.690Z,1010.51
2018-05-09T00:27:39.527Z,1010.52
2018-05-09T00:28:48.362Z,1010.49
2018-05-09T00:29:57.206Z,1010.55
2018-05-09T00:31:06.045Z,1010.53
2018-05-09T00:32:15.239Z,1010.52
2018-05-09T00:33:24.076Z,1010.51
2018-05-09T00:34:33.192Z,1010.5
2018-05-09T00:35:42.042Z,1010.47
2018-05-09T00:36:51.433Z,1010.48
2018-05-09T00:38:00.422Z,1010.47
2018-05-09T00:39:09.258Z,1010.46
2018-05-09T00:40:18.101Z,1010.49
2018-05-09T00:41:27.312Z,1010.49
2018-05-09T00:42:36.149Z,1010.43
2018-05-09T00:43:45.361Z,1010.44
2018-05-09T00:44:54.198Z,1010.45
2018-05-09T00:46:03.314Z,1010.4
2018-05-09T00:47:12.153Z,1010.37
2018-05-09T00:48:20.991Z,1010.4
2018-05-09T00:49:30.252Z,1010.39
2018-05-09T00:50:39.368Z,1010.36
2018-05-09T00:51:48.485Z,1010.34
2018-05-09T00:52:57.323Z,1010.34
2018-05-09T00:54:06.442Z,1010.32
2018-05-09T00:55:15.630Z,1010.32
2018-05-09T00:56:24.468Z,1010.29
2018-05-09T00:57:33.305Z,1010.34
2018-05-09T00:58:42.141Z,1010.28
2018-05-09T00:59:51.252Z,1010.3
2018-05-09T01:01:00.243Z,1010.3
2018-05-09T01:02:09.080Z,1010.23
2018-05-09T01:03:18.273Z,1010.25
2018-05-09T01:04:27.315Z,1010.29
2018-05-09T01:05:36.431Z,1010.27
2018-05-09T01:06:45.367Z,1010.22
2018-05-09T01:07:54.203Z,1010.27
2018-05-09T01:09:03.315Z,1010.27
2018-05-09T01:10:12.152Z,1010.27
2018-05-09T01:11:20.988Z,1010.22
2018-05-09T01:12:29.929Z,1010.24
2018-05-09T01:13:38.765Z,1010.22
2018-05-09T01:14:47.603Z,1010.16
2018-05-09T01:15:56.442Z,1010.18
2018-05-09T01:17:05.280Z,1010.14
2018-05-09T01:18:14.541Z,1010.16
2018-05-09T01:19:23.379Z,1010.12
2018-05-09T01:20:32.496Z,1010.12
2018-05-09T01:21:41.332Z,1010.12
2018-05-09T01:22:50.448Z,1010.11
2018-05-09T01:23:59.284Z,1010.11
2018-05-09T01:25:08.677Z,1010.11
2018-05-09T01:26:17.583Z,1010.14
2018-05-09T01:27:26.352Z,1010.17
2018-05-09T01:28:35.190Z,1010.15
2018-05-09T01:29:44.027Z,1010.16
2018-05-09T01:30:52.865Z,1010.12
2018-05-09T01:32:01.979Z,1010.13
2018-05-09T01:33:10.814Z,1010.12
2018-05-09T01:34:19.652Z,1010.15
2018-05-09T01:35:29.016Z,1010.18
2018-05-09T01:36:38.131Z,1010.2
2018-05-09T01:37:46.967Z,1010.17
2018-05-09T01:38:56.080Z,1010.18
2018-05-09T01:40:04.918Z,1010.16
2018-05-09T01:41:13.754Z,1010.18
2018-05-09T01:42:22.591Z,1010.12
2018-05-09T01:43:31.426Z,1010.13
2018-05-09T01:44:40.263Z,1010.13
2018-05-09T01:45:49.097Z,1010.13
2018-05-09T01:46:58.289Z,1010.17
2018-05-09T01:48:07.125Z,1010.07
2018-05-09T01:49:15.960Z,1010.13
2018-05-09T01:50:24.796Z,1010.12
2018-05-09T01:51:33.634Z,1010.13
2018-05-09T01:52:42.470Z,1010.13
2018-05-09T01:53:51.308Z,1010.08
2018-05-09T01:55:00.160Z,1010.09
2018-05-09T01:56:08.984Z,1010.11
2018-05-09T01:57:17.821Z,1010.11
2018-05-09T01:58:26.996Z,1010.08
2018-05-09T01:59:35.836Z,1010.06
2018-05-09T02:00:44.673Z,1010.04
2018-05-09T02:01:53.515Z,1010.03
2018-05-09T02:03:02.639Z,1010.04
2018-05-09T02:04:11.851Z,1009.99
2018-05-09T02:05:20.685Z,1009.99
2018-05-09T02:06:29.520Z,1010
2018-05-09T02:07:38.356Z,1009.97
2018-05-09T02:08:47.194Z,1009.96
2018-05-09T02:09:56.038Z,1009.98
2018-05-09T02:11:05.149Z,1009.97
2018-05-09T02:12:13.986Z,1009.97
2018-05-09T02:13:22.824Z,1009.97
2018-05-09T02:14:31.947Z,1009.99
2018-05-09T02:15:40.934Z,1009.99
2018-05-09T02:16:49.777Z,1010.02
2018-05-09T02:17:58.616Z,1010.03
2018-05-09T02:19:07.732Z,1010.01
2018-05-09T02:20:16.850Z,1010
2018-05-09T02:21:25.892Z,1010
2018-05-09T02:22:34.727Z,1010
2018-05-09T02:23:43.843Z,1010.01
2018-05-09T02:24:52.680Z,1009.98
2018-05-09T02:26:01.790Z,1010.01
2018-05-09T02:27:10.902Z,1009.99
2018-05-09T02:28:19.739Z,1009.97
2018-05-09T02:29:28.851Z,1010
2018-05-09T02:30:37.689Z,1009.94
2018-05-09T02:31:46.529Z,1009.97
2018-05-09T02:32:55.926Z,1010.01
2018-05-09T02:34:05.324Z,1009.95
2018-05-09T02:35:14.161Z,1010.01
2018-05-09T02:36:23.065Z,1009.98
2018-05-09T02:37:32.121Z,1009.97
2018-05-09T02:38:41.503Z,1009.97
2018-05-09T02:39:50.624Z,1009.98
2018-05-09T02:40:59.743Z,1009.98
2018-05-09T02:42:08.855Z,1009.96
2018-05-09T02:43:18.005Z,1009.98
2018-05-09T02:44:27.626Z,1009.98
2018-05-09T02:45:36.463Z,1009.98
2018-05-09T02:46:45.911Z,1009.98
2018-05-09T02:47:54.687Z,1010
2018-05-09T02:49:04.082Z,1010
2018-05-09T02:50:13.204Z,1010.04
2018-05-09T02:51:22.594Z,1010.01
2018-05-09T02:52:31.433Z,1010.05
2018-05-09T02:53:40.278Z,1010.02
2018-05-09T02:54:49.390Z,1009.98
2018-05-09T02:55:58.239Z,1010.01
2018-05-09T02:57:07.357Z,1010.04
2018-05-09T02:58:16.472Z,1010.01
2018-05-09T02:59:25.863Z,1010.04
2018-05-09T03:00:34.701Z,1010
2018-05-09T03:01:44.241Z,1009.99
2018-05-09T03:02:53.078Z,1010.04
2018-05-09T03:04:01.921Z,1010.01
2018-05-09T03:05:10.765Z,1010.03
2018-05-09T03:06:19.606Z,1009.98
2018-05-09T03:07:29.150Z,1010.04
2018-05-09T03:08:37.983Z,1010.03
2018-05-09T03:09:46.819Z,1010.01
2018-05-09T03:10:55.654Z,1010
2018-05-09T03:12:04.497Z,1010
2018-05-09T03:13:13.383Z,1010.03
2018-05-09T03:14:22.220Z,1010.05
2018-05-09T03:15:31.056Z,1010.04
2018-05-09T03:16:39.894Z,1010.04
2018-05-09T03:17:48.733Z,1010.11
2018-05-09T03:18:57.569Z,1010.13
2018-05-09T03:20:06.406Z,1010.11
2018-05-09T03:21:15.244Z,1010.11
2018-05-09T03:22:24.360Z,1010.13
2018-05-09T03:23:33.473Z,1010.07
2018-05-09T03:24:42.411Z,1010.11
2018-05-09T03:25:51.246Z,1010.06
2018-05-09T03:27:00.082Z,1010.07
2018-05-09T03:28:08.919Z,1010.06
2018-05-09T03:29:17.760Z,1010.11
2018-05-09T03:30:26.871Z,1010.06
2018-05-09T03:31:35.987Z,1010.09
2018-05-09T03:32:45.393Z,1010.04
2018-05-09T03:33:54.516Z,1010.02
2018-05-09T03:35:03.351Z,1010.01
2018-05-09T03:36:12.238Z,1010.11
2018-05-09T03:37:21.076Z,1010.08
2018-05-09T03:38:29.914Z,1010.09
2018-05-09T03:39:38.749Z,1010.07
2018-05-09T03:40:47.864Z,1010.09
2018-05-09T03:41:57.228Z,1010.12
2018-05-09T03:43:06.064Z,1010.11
2018-05-09T03:44:14.903Z,1010.14
2018-05-09T03:45:24.014Z,1010.06
2018-05-09T03:46:32.851Z,1010.09
2018-05-09T03:47:41.691Z,1010.11
2018-05-09T03:48:50.528Z,1010.11
2018-05-09T03:49:59.369Z,1010.1
2018-05-09T03:51:08.200Z,1010.11
2018-05-09T03:52:17.034Z,1010.1
2018-05-09T03:53:25.920Z,1010.1
2018-05-09T03:54:34.987Z,1010.1
2018-05-09T03:55:43.820Z,1010.09
2018-05-09T03:56:52.657Z,1010.13
2018-05-09T03:58:01.493Z,1010.12
2018-05-09T03:59:10.478Z,1010.11
2018-05-09T04:00:19.318Z,1010.14
2018-05-09T04:01:28.430Z,1010.1
2018-05-09T04:02:37.541Z,1010.07
2018-05-09T04:03:46.376Z,1010.11
2018-05-09T04:04:55.367Z,1010.08
2018-05-09T04:06:04.211Z,1010.04
2018-05-09T04:07:13.048Z,1010.07
2018-05-09T04:08:21.883Z,1010.06
2018-05-09T04:09:31.077Z,1010.05
2018-05-09T04:10:39.980Z,1010.07
2018-05-09T04:11:48.817Z,1010.08
2018-05-09T04:12:57.657Z,1010.1
2018-05-09T04:14:06.493Z,1010.08
2018-05-09T04:15:15.337Z,1010.11
2018-05-09T04:16:24.451Z,1010.12
2018-05-09T04:17:33.561Z,1010.15
2018-05-09T04:18:42.396Z,1010.16
2018-05-09T04:19:51.236Z,1010.12
2018-05-09T04:21:00.160Z,1010.12
2018-05-09T04:22:09.059Z,1010.13
2018-05-09T04:23:18.175Z,1010.12
2018-05-09T04:24:27.013Z,1010.2
2018-05-09T04:25:35.852Z,1010.2
2018-05-09T04:26:44.964Z,1010.18
2018-05-09T04:27:53.948Z,1010.19
2018-05-09T04:29:02.785Z,1010.14
2018-05-09T04:30:11.623Z,1010.2
2018-05-09T04:31:20.738Z,1010.16
2018-05-09T04:32:29.574Z,1010.16
2018-05-09T04:33:38.561Z,1010.13
2018-05-09T04:34:47.673Z,1010.12
2018-05-09T04:35:56.786Z,1010.09
2018-05-09T04:37:05.621Z,1010.14
2018-05-09T04:38:14.459Z,1010.15
2018-05-09T04:39:23.294Z,1010.13
2018-05-09T04:40:32.530Z,1010.1
2018-05-09T04:41:41.647Z,1010.14
2018-05-09T04:42:50.764Z,1010.15
2018-05-09T04:43:59.605Z,1010.13
2018-05-09T04:45:08.637Z,1010.11
2018-05-09T04:46:17.475Z,1010.12
2018-05-09T04:47:26.314Z,1010.16
2018-05-09T04:48:35.150Z,1010.16
2018-05-09T04:49:43.991Z,1010.12
2018-05-09T04:50:52.827Z,1010.12
2018-05-09T04:52:02.222Z,1010.11
2018-05-09T04:53:11.054Z,1010.12
2018-05-09T04:54:19.888Z,1010.14
2018-05-09T04:55:29.204Z,1010.15
2018-05-09T04:56:38.726Z,1010.06
2018-05-09T04:57:47.560Z,1010.12
2018-05-09T04:58:56.397Z,1010.13
2018-05-09T05:00:05.239Z,1010.12
2018-05-09T05:01:14.074Z,1010.2
2018-05-09T05:02:23.012Z,1010.13
2018-05-09T05:03:31.848Z,1010.14
2018-05-09T05:04:40.684Z,1010.2
2018-05-09T05:05:49.799Z,1010.23
2018-05-09T05:06:58.987Z,1010.25
2018-05-09T05:08:08.122Z,1010.27
2018-05-09T05:09:16.960Z,1010.26
2018-05-09T05:10:25.797Z,1010.26
2018-05-09T05:11:34.634Z,1010.26
2018-05-09T05:12:43.475Z,1010.3
2018-05-09T05:13:52.357Z,1010.31
2018-05-09T05:15:01.195Z,1010.3
2018-05-09T05:16:10.038Z,1010.27
2018-05-09T05:17:18.872Z,1010.3
2018-05-09T05:18:27.708Z,1010.25
2018-05-09T05:19:36.707Z,1010.26
2018-05-09T05:20:45.483Z,1010.22
2018-05-09T05:21:54.321Z,1010.28
2018-05-09T05:23:03.430Z,1010.3
2018-05-09T05:24:12.272Z,1010.26
2018-05-09T05:25:21.106Z,1010.27
2018-05-09T05:26:29.942Z,1010.26
2018-05-09T05:27:38.782Z,1010.29
2018-05-09T05:28:47.618Z,1010.31
2018-05-09T05:29:56.734Z,1010.29
2018-05-09T05:31:05.846Z,1010.27
2018-05-09T05:32:14.685Z,1010.3
2018-05-09T05:33:23.521Z,1010.3
2018-05-09T05:34:32.357Z,1010.35
2018-05-09T05:35:41.193Z,1010.27
2018-05-09T05:36:50.129Z,1010.27
2018-05-09T05:37:58.967Z,1010.28
2018-05-09T05:39:08.085Z,1010.23
2018-05-09T05:40:16.923Z,1010.26
2018-05-09T05:41:25.765Z,1010.26
2018-05-09T05:42:34.699Z,1010.26
2018-05-09T05:43:43.537Z,1010.28
2018-05-09T05:44:52.760Z,1010.27
2018-05-09T05:46:02.252Z,1010.29
2018-05-09T05:47:11.358Z,1010.26
2018-05-09T05:48:20.344Z,1010.27
2018-05-09T05:49:29.184Z,1010.29
2018-05-09T05:50:38.022Z,1010.26
2018-05-09T05:51:46.859Z,1010.24
2018-05-09T05:52:55.694Z,1010.27
2018-05-09T05:54:04.966Z,1010.22
2018-05-09T05:55:13.816Z,1010.21
2018-05-09T05:56:22.647Z,1010.27
2018-05-09T05:57:31.479Z,1010.19
2018-05-09T05:58:40.319Z,1010.24
2018-05-09T05:59:49.206Z,1010.2
2018-05-09T06:00:58.329Z,1010.16
2018-05-09T06:02:07.165Z,1010.18
2018-05-09T06:03:15.999Z,1010.14
2018-05-09T06:04:24.837Z,1010.2
2018-05-09T06:05:33.877Z,1010.14
2018-05-09T06:06:42.718Z,1010.16
2018-05-09T06:07:51.563Z,1010.13
2018-05-09T06:09:00.702Z,1010.15
2018-05-09T06:10:09.542Z,1010.19
2018-05-09T06:11:18.525Z,1010.15
2018-05-09T06:12:27.913Z,1010.14
2018-05-09T06:13:37.027Z,1010.13
2018-05-09T06:14:46.144Z,1010.15
2018-05-09T06:15:55.261Z,1010.2
2018-05-09T06:17:04.250Z,1010.22
2018-05-09T06:18:13.420Z,1010.26
2018-05-09T06:19:22.260Z,1010.28
2018-05-09T06:20:31.376Z,1010.26
2018-05-09T06:21:40.216Z,1010.29
2018-05-09T06:22:49.055Z,1010.29
2018-05-09T06:23:58.260Z,1010.27
2018-05-09T06:25:07.008Z,1010.27
2018-05-09T06:26:15.843Z,1010.28
2018-05-09T06:27:24.682Z,1010.34
2018-05-09T06:28:33.676Z,1010.34
2018-05-09T06:29:42.511Z,1010.3
2018-05-09T06:30:51.398Z,1010.33
2018-05-09T06:32:00.562Z,1010.32
2018-05-09T06:33:09.672Z,1010.28
2018-05-09T06:34:18.787Z,1010.32
2018-05-09T06:35:27.899Z,1010.36
2018-05-09T06:36:36.741Z,1010.34
2018-05-09T06:37:45.591Z,1010.39
2018-05-09T06:38:54.877Z,1010.31
2018-05-09T06:40:04.089Z,1010.37
2018-05-09T06:41:12.927Z,1010.35
2018-05-09T06:42:21.767Z,1010.34
2018-05-09T06:43:30.883Z,1010.36
2018-05-09T06:44:40.072Z,1010.38
2018-05-09T06:45:49.476Z,1010.4
2018-05-09T06:46:58.314Z,1010.41
2018-05-09T06:48:07.151Z,1010.39
2018-05-09T06:49:15.988Z,1010.37
2018-05-09T06:50:24.826Z,1010.34
2018-05-09T06:51:33.665Z,1010.38
2018-05-09T06:52:42.503Z,1010.34
2018-05-09T06:53:51.346Z,1010.38
2018-05-09T06:55:00.180Z,1010.37
2018-05-09T06:56:09.571Z,1010.43
2018-05-09T06:57:18.559Z,1010.41
2018-05-09T06:58:27.397Z,1010.39
2018-05-09T06:59:36.512Z,1010.42
2018-05-09T07:00:45.348Z,1010.4
2018-05-09T07:01:54.196Z,1010.39
2018-05-09T07:03:03.032Z,1010.4
2018-05-09T07:04:11.869Z,1010.41
2018-05-09T07:05:20.707Z,1010.38
2018-05-09T07:06:29.700Z,1010.42
2018-05-09T07:07:38.815Z,1010.43
2018-05-09T07:08:47.752Z,1010.46
2018-05-09T07:09:56.867Z,1010.42
2018-05-09T07:11:05.708Z,1010.46
2018-05-09T07:12:14.546Z,1010.46
2018-05-09T07:13:23.390Z,1010.4
2018-05-09T07:14:32.224Z,1010.47
2018-05-09T07:15:41.062Z,1010.49
2018-05-09T07:16:49.901Z,1010.49
2018-05-09T07:17:58.740Z,1010.52
2018-05-09T07:19:07.580Z,1010.56
2018-05-09T07:20:16.472Z,1010.53
2018-05-09T07:21:25.311Z,1010.57
2018-05-09T07:22:34.429Z,1010.56
2018-05-09T07:23:43.269Z,1010.6
2018-05-09T07:24:52.107Z,1010.59
2018-05-09T07:26:01.218Z,1010.59
2018-05-09T07:27:10.337Z,1010.55
2018-05-09T07:28:19.451Z,1010.53
2018-05-09T07:29:28.286Z,1010.56
2018-05-09T07:30:37.126Z,1010.55
2018-05-09T07:31:46.291Z,1010.54
2018-05-09T07:32:55.411Z,1010.55
2018-05-09T07:34:04.244Z,1010.53
2018-05-09T07:35:13.085Z,1010.54
2018-05-09T07:36:22.197Z,1010.52
2018-05-09T07:37:31.385Z,1010.55
2018-05-09T07:38:40.223Z,1010.55
2018-05-09T07:39:49.062Z,1010.55
2018-05-09T07:40:58.179Z,1010.55
2018-05-09T07:42:07.112Z,1010.55
2018-05-09T07:43:16.252Z,1010.58
2018-05-09T07:44:25.091Z,1010.57
2018-05-09T07:45:34.207Z,1010.57
2018-05-09T07:46:43.059Z,1010.62
2018-05-09T07:47:52.212Z,1010.59
2018-05-09T07:49:01.341Z,1010.65
2018-05-09T07:50:10.453Z,1010.66
2018-05-09T07:51:19.296Z,1010.58
2018-05-09T07:52:28.135Z,1010.6
2018-05-09T07:53:37.257Z,1010.55
2018-05-09T07:54:46.145Z,1010.54
2018-05-09T07:55:54.987Z,1010.56
2018-05-09T07:57:03.826Z,1010.51
2018-05-09T07:58:12.664Z,1010.58
2018-05-09T07:59:21.505Z,1010.55
2018-05-09T08:00:30.813Z,1010.57
2018-05-09T08:01:39.927Z,1010.56
2018-05-09T08:02:49.048Z,1010.58
2018-05-09T08:03:57.887Z,1010.55
2018-05-09T08:05:07.278Z,1010.57
2018-05-09T08:06:16.368Z,1010.55
2018-05-09T08:07:25.206Z,1010.6
2018-05-09T08:08:34.046Z,1010.58
2018-05-09T08:09:42.886Z,1010.56
2018-05-09T08:10:52.282Z,1010.57
2018-05-09T08:12:01.515Z,1010.62
2018-05-09T08:13:10.353Z,1010.54
2018-05-09T08:14:19.193Z,1010.58
2018-05-09T08:15:28.309Z,1010.53
2018-05-09T08:16:37.150Z,1010.5
2018-05-09T08:17:46.090Z,1010.5
2018-05-09T08:18:55.213Z,1010.53
2018-05-09T08:20:04.097Z,1010.53
2018-05-09T08:21:12.897Z,1010.5
2018-05-09T08:22:21.740Z,1010.48
2018-05-09T08:23:30.908Z,1010.52
2018-05-09T08:24:39.747Z,1010.56
2018-05-09T08:25:48.864Z,1010.55
2018-05-09T08:26:57.705Z,1010.58
2018-05-09T08:28:06.545Z,1010.61
2018-05-09T08:29:15.658Z,1010.64
2018-05-09T08:30:24.556Z,1010.64
2018-05-09T08:31:33.746Z,1010.63
2018-05-09T08:32:42.588Z,1010.62
2018-05-09T08:33:51.425Z,1010.61
2018-05-09T08:35:00.898Z,1010.64
2018-05-09T08:36:09.798Z,1010.6
2018-05-09T08:37:18.938Z,1010.66
2018-05-09T08:38:27.776Z,1010.64
2018-05-09T08:39:36.617Z,1010.65
2018-05-09T08:40:45.555Z,1010.64
2018-05-09T08:41:54.395Z,1010.61
2018-05-09T08:43:03.233Z,1010.66
2018-05-09T08:44:12.362Z,1010.64
2018-05-09T08:45:21.480Z,1010.64
2018-05-09T08:46:30.372Z,1010.64
2018-05-09T08:47:39.210Z,1010.6
2018-05-09T08:48:48.049Z,1010.59
2018-05-09T08:49:56.891Z,1010.6
2018-05-09T08:51:06.277Z,1010.64
2018-05-09T08:52:15.446Z,1010.62
2018-05-09T08:53:24.838Z,1010.62
2018-05-09T08:54:33.678Z,1010.61
2018-05-09T08:55:42.518Z,1010.55
2018-05-09T08:56:51.411Z,1010.61
2018-05-09T08:58:00.527Z,1010.58
2018-05-09T08:59:09.369Z,1010.56
2018-05-09T09:00:18.485Z,1010.6
2018-05-09T09:01:27.601Z,1010.6
2018-05-09T09:02:36.440Z,1010.56
2018-05-09T09:03:45.561Z,1010.6
2018-05-09T09:04:54.677Z,1010.59
2018-05-09T09:06:03.524Z,1010.58
2018-05-09T09:07:12.367Z,1010.56
2018-05-09T09:08:21.207Z,1010.55
2018-05-09T09:09:30.152Z,1010.47
2018-05-09T09:10:38.999Z,1010.46
2018-05-09T09:11:48.475Z,1010.41
2018-05-09T09:12:57.602Z,1010.46
2018-05-09T09:14:06.447Z,1010.41
2018-05-09T09:15:15.638Z,1010.41
2018-05-09T09:16:24.463Z,1010.41
2018-05-09T09:17:33.587Z,1010.42
2018-05-09T09:18:42.491Z,1010.39
2018-05-09T09:19:51.543Z,1010.41
2018-05-09T09:21:01.043Z,1010.45
2018-05-09T09:22:09.889Z,1010.46
2018-05-09T09:23:19.003Z,1010.46
2018-05-09T09:24:27.846Z,1010.47
2018-05-09T09:25:36.691Z,1010.41
2018-05-09T09:26:45.681Z,1010.42
2018-05-09T09:27:54.802Z,1010.39
2018-05-09T09:29:03.933Z,1010.41
2018-05-09T09:30:12.762Z,1010.39
2018-05-09T09:31:21.879Z,1010.4
2018-05-09T09:32:30.869Z,1010.38
2018-05-09T09:33:39.985Z,1010.4
2018-05-09T09:34:48.827Z,1010.4
2018-05-09T09:35:57.667Z,1010.39
2018-05-09T09:37:06.510Z,1010.4
2018-05-09T09:38:15.710Z,1010.4
2018-05-09T09:39:24.833Z,1010.39
2018-05-09T09:40:34.235Z,1010.43
2018-05-09T09:41:43.702Z,1010.37
2018-05-09T09:42:52.829Z,1010.38
2018-05-09T09:44:01.721Z,1010.31
2018-05-09T09:45:10.562Z,1010.34
2018-05-09T09:46:19.403Z,1010.29
2018-05-09T09:47:28.246Z,1010.35
2018-05-09T09:48:37.088Z,1010.31
2018-05-09T09:49:45.980Z,1010.32
2018-05-09T09:50:54.834Z,1010.28
2018-05-09T09:52:03.951Z,1010.28
2018-05-09T09:53:12.795Z,1010.27
2018-05-09T09:54:21.646Z,1010.23
2018-05-09T09:55:30.763Z,1010.21
2018-05-09T09:56:39.878Z,1010.23
2018-05-09T09:57:48.995Z,1010.2
2018-05-09T09:58:57.836Z,1010.2
2018-05-09T10:00:06.681Z,1010.19
2018-05-09T10:01:16.156Z,1010.18
2018-05-09T10:02:24.997Z,1010.23
2018-05-09T10:03:34.116Z,1010.25
2018-05-09T10:04:43.234Z,1010.22
2018-05-09T10:05:52.081Z,1010.21
2018-05-09T10:07:01.172Z,1010.19
2018-05-09T10:08:10.435Z,1010.21
2018-05-09T10:09:19.130Z,1010.16
2018-05-09T10:10:28.252Z,1010.13
2018-05-09T10:11:37.092Z,1010.14
2018-05-09T10:12:45.986Z,1010.15
2018-05-09T10:13:54.829Z,1010.07
2018-05-09T10:15:03.673Z,1010.05
2018-05-09T10:16:12.545Z,1010.1
2018-05-09T10:17:22.323Z,1010.09
2018-05-09T10:18:31.162Z,1010.12
2018-05-09T10:19:40.280Z,1010.09
2018-05-09T10:20:49.407Z,1010.12
2018-05-09T10:21:58.252Z,1010.07
2018-05-09T10:23:07.167Z,1010.04
2018-05-09T10:24:15.987Z,1010.01
2018-05-09T10:25:24.836Z,1010
2018-05-09T10:26:33.948Z,1010.01
2018-05-09T10:27:42.790Z,1009.99
2018-05-09T10:28:51.633Z,1009.94
2018-05-09T10:30:01.173Z,1009.95
2018-05-09T10:31:10.015Z,1009.95
2018-05-09T10:32:18.869Z,1009.94
2018-05-09T10:33:27.710Z,1009.97
2018-05-09T10:34:36.557Z,1009.95
2018-05-09T10:35:45.825Z,1009.93
2018-05-09T10:36:54.668Z,1009.92
2018-05-09T10:38:03.511Z,1009.96
2018-05-09T10:39:12.624Z,1009.96
2018-05-09T10:40:21.743Z,1009.92
2018-05-09T10:41:30.585Z,1009.95
2018-05-09T10:42:39.710Z,1009.95
2018-05-09T10:43:48.556Z,1009.91
2018-05-09T10:44:57.679Z,1009.95
2018-05-09T10:46:06.523Z,1009.92
2018-05-09T10:47:15.744Z,1009.92
2018-05-09T10:48:24.585Z,1009.88
2018-05-09T10:49:33.428Z,1009.87
2018-05-09T10:50:42.312Z,1009.89
2018-05-09T10:51:51.450Z,1009.9
2018-05-09T10:53:00.441Z,1009.91
2018-05-09T10:54:09.290Z,1009.87
2018-05-09T10:55:18.134Z,1009.86
2018-05-09T10:56:26.980Z,1009.89
2018-05-09T10:57:35.824Z,1009.94
2018-05-09T10:58:45.121Z,1009.89
2018-05-09T10:59:54.234Z,1009.92
2018-05-09T11:01:03.078Z,1009.9
2018-05-09T11:02:11.928Z,1009.88
2018-05-09T11:03:20.770Z,1009.91
2018-05-09T11:04:29.762Z,1009.86
2018-05-09T11:05:38.879Z,1009.83
2018-05-09T11:06:47.720Z,1009.91
2018-05-09T11:07:56.564Z,1009.9
2018-05-09T11:09:05.681Z,1009.87
2018-05-09T11:10:14.958Z,1009.86
2018-05-09T11:11:23.802Z,1009.84
2018-05-09T11:12:32.644Z,1009.86
2018-05-09T11:13:41.495Z,1009.88
2018-05-09T11:14:50.332Z,1009.9
2018-05-09T11:15:59.324Z,1009.87
2018-05-09T11:17:08.444Z,1009.82
2018-05-09T11:18:17.562Z,1009.79
2018-05-09T11:19:26.404Z,1009.83
2018-05-09T11:20:35.247Z,1009.79
2018-05-09T11:21:44.363Z,1009.75
2018-05-09T11:22:53.206Z,1009.75
2018-05-09T11:24:02.053Z,1009.71
2018-05-09T11:25:11.172Z,1009.74
2018-05-09T11:26:20.014Z,1009.74
2018-05-09T11:27:28.957Z,1009.73
2018-05-09T11:28:38.076Z,1009.68
2018-05-09T11:29:46.921Z,1009.66
2018-05-09T11:30:55.765Z,1009.65
2018-05-09T11:32:04.609Z,1009.6
2018-05-09T11:33:13.603Z,1009.6
2018-05-09T11:34:22.726Z,1009.6
2018-05-09T11:35:31.567Z,1009.61
2018-05-09T11:36:40.413Z,1009.64
2018-05-09T11:37:49.534Z,1009.62
2018-05-09T11:38:58.440Z,1009.59
2018-05-09T11:40:07.326Z,1009.55
2018-05-09T11:41:16.170Z,1009.55
2018-05-09T11:42:25.291Z,1009.53
2018-05-09T11:43:34.130Z,1009.55
2018-05-09T11:44:43.354Z,1009.58
2018-05-09T11:45:52.905Z,1009.56
2018-05-09T11:47:02.036Z,1009.55
2018-05-09T11:48:10.879Z,1009.53
2018-05-09T11:49:19.730Z,1009.51
2018-05-09T11:50:28.732Z,1009.55
2018-05-09T11:51:37.852Z,1009.49
2018-05-09T11:52:46.696Z,1009.52
2018-05-09T11:53:55.541Z,1009.5
2018-05-09T11:55:04.662Z,1009.5
2018-05-09T11:56:13.612Z,1009.48
2018-05-09T11:57:22.455Z,1009.51
2018-05-09T11:58:31.305Z,1009.48
2018-05-09T11:59:40.151Z,1009.48
2018-05-09T12:00:49.015Z,1009.47
2018-05-09T12:01:58.497Z,1009.47
2018-05-09T12:03:07.393Z,1009.45
2018-05-09T12:04:16.542Z,1009.41
2018-05-09T12:05:25.715Z,1009.41
2018-05-09T12:06:35.123Z,1009.38
2018-05-09T12:07:44.312Z,1009.43
2018-05-09T12:08:53.183Z,1009.42
2018-05-09T12:10:02.844Z,1009.44
2018-05-09T12:11:12.008Z,1009.46
2018-05-09T12:12:20.880Z,1009.42
2018-05-09T12:13:30.014Z,1009.42
2018-05-09T12:14:38.909Z,1009.4
2018-05-09T12:15:48.035Z,1009.36
2018-05-09T12:16:56.887Z,1009.34
2018-05-09T12:18:05.740Z,1009.35
2018-05-09T12:19:14.591Z,1009.37
2018-05-09T12:20:23.438Z,1009.35
2018-05-09T12:21:32.608Z,1009.31
2018-05-09T12:22:41.538Z,1009.3
2018-05-09T12:23:50.403Z,1009.33
2018-05-09T12:24:59.731Z,1009.29
2018-05-09T12:26:08.575Z,1009.32
2018-05-09T12:27:17.476Z,1009.27
2018-05-09T12:28:26.327Z,1009.28
2018-05-09T12:29:35.181Z,1009.28
2018-05-09T12:30:44.132Z,1009.26
2018-05-09T12:31:52.991Z,1009.25
2018-05-09T12:33:01.843Z,1009.2
2018-05-09T12:34:10.692Z,1009.2
2018-05-09T12:35:19.546Z,1009.12
2018-05-09T12:36:28.423Z,1009.21
2018-05-09T12:37:37.973Z,1009.17
2018-05-09T12:38:46.828Z,1009.19
2018-05-09T12:39:55.956Z,1009.16
2018-05-09T12:41:04.813Z,1009.17
2018-05-09T12:42:13.914Z,1009.13
2018-05-09T12:43:23.046Z,1009.08
2018-05-09T12:44:31.902Z,1009.09
2018-05-09T12:45:40.757Z,1009.08
2018-05-09T12:46:49.891Z,1009.1
2018-05-09T12:47:58.893Z,1009.03
2018-05-09T12:49:07.743Z,1009.1
2018-05-09T12:50:16.876Z,1009.04
2018-05-09T12:51:26.005Z,1009.07
2018-05-09T12:52:34.857Z,1009.08
2018-05-09T12:53:44.039Z,1009.05
2018-05-09T12:54:52.894Z,1009.06
2018-05-09T12:56:02.020Z,1008.99
2018-05-09T12:57:10.886Z,1008.93
2018-05-09T12:58:19.727Z,1008.96
2018-05-09T12:59:28.961Z,1008.95
2018-05-09T13:00:38.094Z,1008.91
2018-05-09T13:01:46.956Z,1008.96
2018-05-09T13:02:55.807Z,1008.93
2018-05-09T13:04:04.665Z,1008.88
2018-05-09T13:05:13.773Z,1008.87
2018-05-09T13:06:22.990Z,1008.9
2018-05-09T13:07:32.052Z,1008.82
2018-05-09T13:08:40.910Z,1008.84
2018-05-09T13:09:49.759Z,1008.74
2018-05-09T13:10:59.047Z,1008.74
2018-05-09T13:12:07.902Z,1008.7
2018-05-09T13:13:17.089Z,1008.72
2018-05-09T13:14:26.284Z,1008.69
2018-05-09T13:15:35.151Z,1008.66
2018-05-09T13:16:44.287Z,1008.71
2018-05-09T13:17:53.309Z,1008.69
2018-05-09T13:19:02.196Z,1008.67
2018-05-09T13:20:11.335Z,1008.7
2018-05-09T13:21:20.486Z,1008.61
2018-05-09T13:22:30.002Z,1008.63
2018-05-09T13:23:39.610Z,1008.66
2018-05-09T13:24:48.872Z,1008.62
2018-05-09T13:25:57.718Z,1008.64
2018-05-09T13:27:06.944Z,1008.61
2018-05-09T13:28:15.910Z,1008.61
2018-05-09T13:29:24.864Z,1008.62
2018-05-09T13:30:34.001Z,1008.57
2018-05-09T13:31:42.887Z,1008.62
2018-05-09T13:32:52.083Z,1008.59
2018-05-09T13:34:01.289Z,1008.57
2018-05-09T13:35:10.180Z,1008.59
2018-05-09T13:36:19.311Z,1008.66
2018-05-09T13:37:28.455Z,1008.68
2018-05-09T13:38:37.321Z,1008.72
2018-05-09T13:39:46.355Z,1008.71
2018-05-09T13:40:56.495Z,1008.66
2018-05-09T13:42:05.364Z,1008.68
2018-05-09T13:43:14.219Z,1008.65
2018-05-09T13:44:23.074Z,1008.64
2018-05-09T13:45:32.131Z,1008.65
2018-05-09T13:46:40.989Z,1008.64
2018-05-09T13:47:50.705Z,1008.61
2018-05-09T13:48:59.565Z,1008.63
2018-05-09T13:50:08.523Z,1008.62
2018-05-09T13:51:17.958Z,1008.62
2018-05-09T13:52:26.876Z,1008.68
2018-05-09T13:53:35.758Z,1008.67
2018-05-09T13:54:44.659Z,1008.66
2018-05-09T13:55:53.534Z,1008.66
2018-05-09T13:57:02.510Z,1008.68